createdAt,value
2022-08-01T00:00:40.639Z,25.50
2022-08-01T00:02:42.464Z,25.50
2022-08-01T00:04:44.336Z,25.50
2022-08-01T00:06:46.033Z,25.50
2022-08-01T00:08:47.722Z,25.50
2022-08-01T00:10:49.501Z,25.50
2022-08-01T00:12:51.278Z,25.50
2022-08-01T00:14:53.056Z,25.50
2022-08-01T00:16:54.785Z,25.40
2022-08-01T00:18:56.519Z,25.40
2022-08-01T00:20:58.175Z,25.40
2022-08-01T00:22:59.875Z,25.40
2022-08-01T00:25:01.803Z,25.40
2022-08-01T00:27:03.530Z,25.40
2022-08-01T00:29:05.254Z,25.30
2022-08-01T00:31:13.296Z,25.30
2022-08-01T00:33:14.965Z,25.30
2022-08-01T00:35:17.295Z,25.20
2022-08-01T00:37:19.067Z,25.20
2022-08-01T00:39:20.792Z,25.20
2022-08-01T00:41:22.449Z,25.20
2022-08-01T00:43:24.224Z,25.20
2022-08-01T00:45:25.995Z,25.20
2022-08-01T00:47:29.301Z,25.10
2022-08-01T00:49:31.161Z,25.10
2022-08-01T00:51:37.130Z,25.10
2022-08-01T00:53:51.083Z,25.10
2022-08-01T00:55:54.175Z,25.00
2022-08-01T00:58:03.109Z,25.00
2022-08-01T01:00:08.234Z,25.00
2022-08-01T01:02:14.789Z,25.00
2022-08-01T01:04:17.855Z,25.00
2022-08-01T01:06:19.564Z,25.00
2022-08-01T01:08:25.077Z,24.90
2022-08-01T01:10:33.353Z,24.90
2022-08-01T01:12:50.138Z,24.90
2022-08-01T01:14:55.884Z,24.90
2022-08-01T01:16:58.231Z,24.90
2022-08-01T01:19:02.176Z,24.90
2022-08-01T01:21:19.105Z,24.90
2022-08-01T01:23:42.979Z,24.80
2022-08-01T01:25:44.618Z,24.80
2022-08-01T01:27:50.726Z,24.90
2022-08-01T01:30:00.253Z,24.80
2022-08-01T01:32:20.855Z,24.80
2022-08-01T01:34:37.064Z,24.80
2022-08-01T01:36:40.123Z,24.70
2022-08-01T01:38:42.961Z,24.70
2022-08-01T01:40:45.312Z,24.70
2022-08-01T01:42:47.334Z,24.70
2022-08-01T01:44:50.112Z,24.70
2022-08-01T01:46:52.406Z,24.70
2022-08-01T01:48:54.955Z,24.60
2022-08-01T01:50:57.716Z,24.60
2022-08-01T01:53:00.232Z,24.70
2022-08-01T01:55:03.268Z,24.60
2022-08-01T01:57:05.760Z,24.60
2022-08-01T01:59:07.447Z,24.60
2022-08-01T02:01:12.408Z,24.60
2022-08-01T02:03:17.054Z,24.60
2022-08-01T02:05:19.275Z,24.60
2022-08-01T02:07:23.535Z,24.60
2022-08-01T02:09:26.091Z,24.50
2022-08-01T02:11:27.814Z,24.60
2022-08-01T02:13:30.896Z,24.60
2022-08-01T02:15:34.029Z,24.60
2022-08-01T02:17:38.521Z,24.50
2022-08-01T02:19:41.020Z,24.60
2022-08-01T02:21:50.009Z,24.50
2022-08-01T02:23:52.692Z,24.50
2022-08-01T02:26:09.539Z,24.50
2022-08-01T02:28:28.978Z,24.50
2022-08-01T02:30:34.933Z,24.40
2022-08-01T02:32:47.430Z,24.40
2022-08-01T02:34:50.175Z,24.40
2022-08-01T02:36:52.520Z,24.40
2022-08-01T02:38:55.417Z,24.40
2022-08-01T02:41:04.502Z,24.40
2022-08-01T02:43:06.623Z,24.40
2022-08-01T02:45:09.521Z,24.30
2022-08-01T02:47:11.322Z,24.30
2022-08-01T02:49:13.639Z,24.30
2022-08-01T02:51:16.952Z,24.30
2022-08-01T02:53:20.214Z,24.30
2022-08-01T02:55:23.585Z,24.30
2022-08-01T02:57:33.623Z,24.30
2022-08-01T02:59:47.971Z,24.30
2022-08-01T03:01:50.640Z,24.30
2022-08-01T03:03:52.450Z,24.30
2022-08-01T03:05:54.304Z,24.20
2022-08-01T03:08:02.594Z,24.30
2022-08-01T03:10:05.783Z,24.30
2022-08-01T03:12:10.453Z,24.30
2022-08-01T03:14:13.238Z,24.20
2022-08-01T03:16:16.201Z,24.20
2022-08-01T03:18:18.169Z,24.20
2022-08-01T03:20:21.688Z,24.20
2022-08-01T03:22:24.922Z,24.20
2022-08-01T03:24:27.126Z,24.20
2022-08-01T03:26:30.026Z,24.20
2022-08-01T03:28:31.882Z,24.20
2022-08-01T03:30:34.077Z,24.10
2022-08-01T03:32:35.759Z,24.10
2022-08-01T03:34:37.447Z,24.10
2022-08-01T03:36:43.746Z,24.10
2022-08-01T03:38:46.525Z,24.10
2022-08-01T03:40:50.376Z,24.10
2022-08-01T03:42:55.107Z,24.00
2022-08-01T03:44:59.642Z,24.00
2022-08-01T03:47:03.325Z,24.00
2022-08-01T03:49:08.945Z,24.00
2022-08-01T03:51:11.240Z,24.00
2022-08-01T03:53:14.116Z,24.00
2022-08-01T03:55:17.791Z,23.90
2022-08-01T03:57:35.929Z,23.90
2022-08-01T03:59:39.363Z,23.90
2022-08-01T04:01:41.359Z,23.90
2022-08-01T04:03:43.684Z,23.90
2022-08-01T04:05:45.776Z,23.80
2022-08-01T04:07:48.624Z,23.80
2022-08-01T04:09:50.395Z,23.90
2022-08-01T04:11:52.070Z,23.80
2022-08-01T04:13:54.411Z,23.80
2022-08-01T04:15:57.044Z,23.80
2022-08-01T04:17:58.747Z,23.80
2022-08-01T04:20:00.731Z,23.80
2022-08-01T04:22:03.983Z,23.80
2022-08-01T04:24:10.066Z,23.70
2022-08-01T04:26:13.470Z,23.70
2022-08-01T04:28:17.281Z,23.70
2022-08-01T04:30:21.065Z,23.70
2022-08-01T04:32:23.415Z,23.70
2022-08-01T04:34:26.266Z,23.70
2022-08-01T04:36:30.034Z,23.70
2022-08-01T04:38:32.851Z,23.70
2022-08-01T04:40:36.753Z,23.70
2022-08-01T04:42:38.699Z,23.70
2022-08-01T04:44:40.436Z,23.70
2022-08-01T04:46:42.800Z,23.60
2022-08-01T04:48:45.774Z,23.70
2022-08-01T04:50:47.454Z,23.70
2022-08-01T04:52:49.300Z,23.70
2022-08-01T04:54:51.406Z,23.70
2022-08-01T04:56:54.464Z,23.70
2022-08-01T04:59:19.987Z,23.70
2022-08-01T05:01:22.160Z,23.60
2022-08-01T05:03:23.894Z,23.70
2022-08-01T05:05:27.164Z,23.70
2022-08-01T05:07:28.942Z,23.70
2022-08-01T05:09:31.691Z,23.70
2022-08-01T05:11:33.369Z,23.70
2022-08-01T05:13:35.094Z,23.70
2022-08-01T05:15:39.742Z,23.70
2022-08-01T05:17:43.075Z,23.70
2022-08-01T05:19:44.829Z,23.70
2022-08-01T05:21:46.610Z,23.70
2022-08-01T05:23:50.031Z,23.80
2022-08-01T05:25:57.017Z,23.80
2022-08-01T05:27:59.996Z,23.80
2022-08-01T05:30:01.683Z,23.80
2022-08-01T05:32:03.916Z,23.80
2022-08-01T05:34:05.857Z,23.80
2022-08-01T05:36:16.707Z,23.90
2022-08-01T05:38:18.397Z,23.90
2022-08-01T05:40:20.113Z,23.90
2022-08-01T05:42:21.823Z,23.90
2022-08-01T05:44:23.523Z,23.90
2022-08-01T05:46:27.492Z,23.90
2022-08-01T05:48:29.657Z,23.90
2022-08-01T05:50:31.332Z,24.00
2022-08-01T05:52:33.059Z,24.00
2022-08-01T05:54:34.941Z,24.00
2022-08-01T05:56:36.706Z,24.00
2022-08-01T05:58:38.479Z,24.00
2022-08-01T06:00:40.686Z,24.10
2022-08-01T06:02:45.572Z,24.10
2022-08-01T06:04:47.357Z,24.10
2022-08-01T06:06:49.135Z,24.10
2022-08-01T06:08:51.589Z,24.20
2022-08-01T06:10:53.436Z,24.20
2022-08-01T06:12:55.246Z,24.20
2022-08-01T06:14:56.921Z,24.20
2022-08-01T06:16:59.301Z,24.30
2022-08-01T06:19:01.010Z,24.30
2022-08-01T06:21:02.770Z,24.30
2022-08-01T06:23:30.063Z,24.30
2022-08-01T06:25:26.414Z,24.40
2022-08-01T06:27:28.124Z,24.40
2022-08-01T06:29:31.500Z,24.40
2022-08-01T06:31:33.924Z,24.50
2022-08-01T06:33:35.793Z,24.50
2022-08-01T06:35:37.525Z,24.60
2022-08-01T06:37:39.294Z,24.60
2022-08-01T06:39:40.971Z,24.60
2022-08-01T06:41:42.669Z,24.60
2022-08-01T06:43:44.398Z,24.70
2022-08-01T06:45:46.092Z,24.70
2022-08-01T06:47:50.494Z,24.70
2022-08-01T06:49:52.659Z,24.70
2022-08-01T06:51:54.316Z,24.80
2022-08-01T06:53:56.046Z,24.80
2022-08-01T06:55:57.762Z,24.80
2022-08-01T06:57:59.531Z,24.80
2022-08-01T07:00:11.714Z,24.90
2022-08-01T07:02:13.509Z,24.90
2022-08-01T07:04:15.210Z,24.90
2022-08-01T07:06:17.761Z,24.90
2022-08-01T07:08:19.537Z,24.90
2022-08-01T07:10:21.264Z,24.90
2022-08-01T07:12:23.034Z,24.90
2022-08-01T07:14:25.163Z,24.90
2022-08-01T07:16:26.832Z,25.00
2022-08-01T07:18:28.529Z,25.00
2022-08-01T07:20:33.848Z,25.00
2022-08-01T07:22:39.959Z,25.00
2022-08-01T07:24:45.903Z,25.00
2022-08-01T07:26:53.821Z,25.00
2022-08-01T07:28:56.207Z,25.00
2022-08-01T07:30:57.927Z,25.00
2022-08-01T07:32:59.724Z,25.00
2022-08-01T07:35:01.991Z,25.00
2022-08-01T07:37:03.679Z,25.00
2022-08-01T07:39:05.370Z,25.00
2022-08-01T07:41:07.080Z,25.00
2022-08-01T07:43:08.826Z,25.00
2022-08-01T07:45:10.972Z,25.00
2022-08-01T07:47:12.728Z,25.00
2022-08-01T07:49:14.524Z,25.10
2022-08-01T07:51:16.369Z,25.10
2022-08-01T07:53:18.240Z,25.10
2022-08-01T07:55:19.919Z,25.10
2022-08-01T07:57:21.584Z,25.20
2022-08-01T07:59:26.396Z,25.20
2022-08-01T08:01:28.510Z,25.20
2022-08-01T08:03:30.293Z,25.20
2022-08-01T08:05:58.660Z,25.20
2022-08-01T08:07:55.117Z,25.30
2022-08-01T08:09:56.931Z,25.30
2022-08-01T08:11:58.622Z,25.40
2022-08-01T08:14:00.385Z,25.40
2022-08-01T08:16:02.059Z,25.40
2022-08-01T08:18:04.250Z,25.50
2022-08-01T08:20:09.236Z,25.50
2022-08-01T08:22:11.233Z,25.50
2022-08-01T08:24:26.549Z,25.60
2022-08-01T08:26:29.039Z,25.60
2022-08-01T08:28:30.721Z,25.70
2022-08-01T08:30:32.406Z,25.70
2022-08-01T08:32:34.469Z,25.80
2022-08-01T08:34:36.249Z,25.80
2022-08-01T08:36:38.231Z,25.90
2022-08-01T08:38:39.939Z,25.90
2022-08-01T08:40:42.172Z,25.90
2022-08-01T08:42:43.960Z,26.00
2022-08-01T08:44:45.774Z,26.10
2022-08-01T08:46:48.837Z,26.10
2022-08-01T08:48:51.321Z,26.10
2022-08-01T08:50:53.159Z,26.10
2022-08-01T08:52:55.855Z,26.10
2022-08-01T08:54:58.688Z,26.10
2022-08-01T08:57:01.167Z,26.20
2022-08-01T08:59:03.695Z,26.20
2022-08-01T09:01:06.934Z,26.20
2022-08-01T09:03:08.806Z,26.30
2022-08-01T09:05:16.202Z,26.30
2022-08-01T09:07:21.188Z,26.30
2022-08-01T09:09:23.470Z,26.30
2022-08-01T09:11:25.657Z,26.30
2022-08-01T09:13:27.390Z,26.40
2022-08-01T09:15:41.157Z,26.40
2022-08-01T09:17:42.955Z,26.30
2022-08-01T09:19:48.842Z,26.40
2022-08-01T09:21:58.418Z,26.50
2022-08-01T09:24:03.863Z,26.50
2022-08-01T09:26:05.601Z,26.50
2022-08-01T09:28:07.367Z,26.60
2022-08-01T09:30:09.064Z,26.60
2022-08-01T09:32:14.090Z,26.60
2022-08-01T09:34:24.964Z,26.60
2022-08-01T09:36:28.454Z,26.60
2022-08-01T09:38:33.137Z,26.70
2022-08-01T09:40:47.987Z,26.70
2022-08-01T09:42:52.716Z,26.80
2022-08-01T09:44:55.417Z,26.80
2022-08-01T09:46:57.313Z,26.80
2022-08-01T09:49:03.466Z,26.80
2022-08-01T09:51:10.005Z,26.80
2022-08-01T09:53:24.462Z,26.80
2022-08-01T09:55:32.245Z,26.80
2022-08-01T09:57:34.088Z,26.90
2022-08-01T09:59:57.174Z,26.90
2022-08-01T10:01:59.826Z,27.00
2022-08-01T10:04:06.075Z,27.00
2022-08-01T10:06:24.972Z,27.10
2022-08-01T10:08:26.893Z,27.10
2022-08-01T10:10:31.840Z,27.20
2022-08-01T10:12:35.265Z,27.30
2022-08-01T10:14:39.349Z,27.30
2022-08-01T10:16:43.621Z,27.40
2022-08-01T10:18:45.819Z,27.40
2022-08-01T10:20:49.185Z,27.50
2022-08-01T10:22:50.948Z,27.50
2022-08-01T10:24:55.710Z,27.60
2022-08-01T10:27:05.508Z,27.60
2022-08-01T10:29:45.062Z,27.60
2022-08-01T10:31:33.778Z,27.70
2022-08-01T10:33:51.417Z,27.70
2022-08-01T10:35:54.917Z,27.80
2022-08-01T10:37:59.058Z,27.80
2022-08-01T10:40:28.458Z,27.90
2022-08-01T10:42:22.706Z,27.90
2022-08-01T10:44:25.743Z,27.90
2022-08-01T10:46:28.605Z,28.00
2022-08-01T10:48:37.844Z,28.00
2022-08-01T10:50:42.505Z,28.00
2022-08-01T10:53:08.896Z,28.10
2022-08-01T10:55:18.590Z,28.10
2022-08-01T10:57:23.137Z,28.10
2022-08-01T10:59:50.450Z,28.20
2022-08-01T11:01:59.786Z,28.10
2022-08-01T11:04:01.911Z,28.20
2022-08-01T11:06:04.627Z,28.20
2022-08-01T11:08:27.129Z,28.20
2022-08-01T11:10:38.120Z,28.20
2022-08-01T11:12:43.859Z,28.20
2022-08-01T11:15:02.730Z,28.20
2022-08-01T11:17:42.825Z,28.20
2022-08-01T11:20:03.055Z,28.20
2022-08-01T11:22:05.061Z,28.30
2022-08-01T11:24:06.865Z,28.30
2022-08-01T11:26:10.527Z,28.40
2022-08-01T11:28:28.684Z,28.40
2022-08-01T11:30:31.848Z,28.40
2022-08-01T11:32:52.608Z,28.50
2022-08-01T11:34:58.559Z,28.50
2022-08-01T11:37:18.715Z,28.50
2022-08-01T11:39:20.539Z,28.60
2022-08-01T11:41:38.479Z,28.60
2022-08-01T11:43:59.851Z,28.60
2022-08-01T11:46:02.811Z,28.60
2022-08-01T11:48:18.869Z,28.70
2022-08-01T11:50:46.795Z,28.70
2022-08-01T11:52:49.011Z,28.80
2022-08-01T11:54:53.280Z,28.80
2022-08-01T11:56:56.241Z,28.90
2022-08-01T11:59:01.143Z,28.90
2022-08-01T12:01:02.915Z,29.00
2022-08-01T12:03:06.032Z,29.10
2022-08-01T12:05:14.227Z,29.20
2022-08-01T12:07:16.651Z,29.20
2022-08-01T12:09:19.532Z,29.30
2022-08-01T12:11:21.320Z,29.40
2022-08-01T12:13:23.332Z,29.40
2022-08-01T12:15:25.450Z,29.50
2022-08-01T12:17:30.775Z,29.50
2022-08-01T12:19:32.598Z,29.60
2022-08-01T12:21:34.317Z,29.70
2022-08-01T12:23:36.073Z,29.70
2022-08-01T12:25:40.199Z,29.80
2022-08-01T12:27:42.937Z,29.90
2022-08-01T12:29:45.092Z,30.00
2022-08-01T12:31:46.825Z,30.00
2022-08-01T12:33:48.504Z,30.10
2022-08-01T12:35:51.365Z,30.10
2022-08-01T12:37:54.724Z,30.20
2022-08-01T12:39:57.675Z,30.20
2022-08-01T12:41:59.736Z,30.30
2022-08-01T12:44:01.441Z,30.40
2022-08-01T12:46:03.819Z,30.50
2022-08-01T12:48:09.131Z,30.50
2022-08-01T12:50:15.149Z,30.60
2022-08-01T12:52:18.304Z,30.70
2022-08-01T12:54:20.144Z,30.80
2022-08-01T12:56:31.946Z,30.90
2022-08-01T12:58:34.336Z,31.00
2022-08-01T13:00:36.604Z,31.10
2022-08-01T13:02:38.749Z,31.20
2022-08-01T13:04:50.240Z,31.30
2022-08-01T13:06:55.368Z,31.40
2022-08-01T13:09:05.506Z,31.50
2022-08-01T13:11:14.752Z,31.60
2022-08-01T13:13:27.915Z,31.70
2022-08-01T13:15:32.635Z,31.80
2022-08-01T13:17:36.942Z,31.90
2022-08-01T13:19:44.840Z,32.00
2022-08-01T13:21:56.940Z,32.00
2022-08-01T13:24:11.892Z,32.10
2022-08-01T13:26:13.694Z,32.20
2022-08-01T13:28:16.245Z,32.20
2022-08-01T13:30:18.984Z,32.30
2022-08-01T13:32:27.796Z,32.40
2022-08-01T13:34:33.032Z,32.40
2022-08-01T13:36:35.582Z,32.40
2022-08-01T13:38:56.042Z,32.50
2022-08-01T13:41:00.866Z,32.60
2022-08-01T13:43:02.558Z,32.60
2022-08-01T13:45:13.879Z,32.70
2022-08-01T13:47:17.105Z,32.80
2022-08-01T13:49:19.284Z,32.80
2022-08-01T13:51:22.703Z,32.80
2022-08-01T13:53:25.374Z,32.90
2022-08-01T13:55:31.096Z,32.90
2022-08-01T13:57:37.171Z,32.80
2022-08-01T13:59:39.129Z,32.80
2022-08-01T14:01:40.959Z,32.80
2022-08-01T14:03:42.830Z,32.80
2022-08-01T14:05:45.022Z,32.80
2022-08-01T14:07:48.567Z,32.80
2022-08-01T14:09:57.772Z,32.80
2022-08-01T14:12:12.566Z,32.80
2022-08-01T14:14:14.499Z,32.80
2022-08-01T14:16:17.216Z,32.80
2022-08-01T14:18:19.185Z,32.80
2022-08-01T14:20:20.923Z,32.80
2022-08-01T14:22:22.597Z,32.80
2022-08-01T14:24:24.628Z,32.70
2022-08-01T14:26:29.489Z,32.60
2022-08-01T14:28:31.594Z,32.60
2022-08-01T14:30:33.841Z,32.50
2022-08-01T14:32:36.154Z,32.50
2022-08-01T14:34:37.854Z,32.40
2022-08-01T14:36:39.710Z,32.40
2022-08-01T14:38:46.603Z,32.30
2022-08-01T14:40:52.110Z,32.30
2022-08-01T14:42:53.871Z,32.20
2022-08-01T14:44:55.569Z,32.20
2022-08-01T14:46:58.740Z,32.20
2022-08-01T14:49:00.714Z,32.10
2022-08-01T14:51:03.696Z,32.10
2022-08-01T14:53:05.786Z,32.10
2022-08-01T14:55:08.878Z,32.00
2022-08-01T14:57:10.606Z,32.00
2022-08-01T14:59:20.936Z,31.90
2022-08-01T15:01:23.849Z,31.90
2022-08-01T15:03:25.613Z,31.90
2022-08-01T15:05:27.807Z,31.80
2022-08-01T15:07:29.514Z,31.80
2022-08-01T15:09:31.197Z,31.70
2022-08-01T15:11:34.261Z,31.70
2022-08-01T15:13:41.878Z,31.70
2022-08-01T15:15:44.236Z,31.60
2022-08-01T15:17:46.046Z,31.60
2022-08-01T15:19:48.589Z,31.60
2022-08-01T15:21:50.260Z,31.60
2022-08-01T15:23:52.105Z,31.60
2022-08-01T15:25:53.791Z,31.60
2022-08-01T15:27:55.501Z,31.60
2022-08-01T15:29:57.283Z,31.60
2022-08-01T15:31:59.419Z,31.60
2022-08-01T15:34:01.761Z,31.70
2022-08-01T15:36:03.754Z,31.70
2022-08-01T15:38:05.517Z,31.70
2022-08-01T15:40:07.481Z,31.70
2022-08-01T15:42:10.322Z,31.70
2022-08-01T15:44:12.109Z,31.70
2022-08-01T15:46:13.900Z,31.70
2022-08-01T15:48:16.467Z,31.70
2022-08-01T15:50:18.142Z,31.60
2022-08-01T15:52:21.914Z,31.60
2022-08-01T15:54:24.735Z,31.60
2022-08-01T15:56:26.417Z,31.60
2022-08-01T15:58:28.195Z,31.60
2022-08-01T16:00:32.851Z,31.60
2022-08-01T16:02:40.765Z,31.60
2022-08-01T16:04:42.449Z,31.60
2022-08-01T16:06:44.155Z,31.60
2022-08-01T16:08:46.088Z,31.60
2022-08-01T16:10:47.776Z,31.50
2022-08-01T16:12:49.472Z,31.50
2022-08-01T16:14:51.180Z,31.50
2022-08-01T16:16:55.203Z,31.50
2022-08-01T16:18:57.018Z,31.40
2022-08-01T16:20:58.936Z,31.40
2022-08-01T16:23:01.065Z,31.40
2022-08-01T16:25:03.904Z,31.30
2022-08-01T16:27:05.920Z,31.30
2022-08-01T16:29:07.853Z,31.30
2022-08-01T16:31:15.202Z,31.30
2022-08-01T16:33:41.212Z,31.20
2022-08-01T16:35:44.736Z,31.20
2022-08-01T16:37:48.623Z,31.20
2022-08-01T16:39:50.417Z,31.10
2022-08-01T16:41:55.112Z,31.10
2022-08-01T16:43:57.287Z,31.10
2022-08-01T16:45:58.968Z,31.00
2022-08-01T16:48:00.708Z,31.00
2022-08-01T16:50:03.821Z,31.00
2022-08-01T16:52:05.935Z,31.00
2022-08-01T16:54:25.707Z,30.90
2022-08-01T16:56:28.340Z,30.90
2022-08-01T16:58:30.058Z,30.80
2022-08-01T17:00:31.742Z,30.80
2022-08-01T17:02:33.508Z,30.80
2022-08-01T17:04:35.298Z,30.70
2022-08-01T17:06:37.157Z,30.70
2022-08-01T17:08:46.688Z,30.70
2022-08-01T17:10:48.986Z,30.60
2022-08-01T17:12:50.654Z,30.60
2022-08-01T17:14:52.425Z,30.60
2022-08-01T17:16:54.104Z,30.60
2022-08-01T17:18:55.836Z,30.60
2022-08-01T17:20:57.522Z,30.50
2022-08-01T17:22:59.350Z,30.50
2022-08-01T17:25:02.426Z,30.50
2022-08-01T17:27:08.207Z,30.40
2022-08-01T17:29:12.532Z,30.40
2022-08-01T17:31:14.231Z,30.40
2022-08-01T17:33:15.967Z,30.30
2022-08-01T17:35:17.779Z,30.30
2022-08-01T17:37:19.510Z,30.30
2022-08-01T17:39:23.835Z,30.20
2022-08-01T17:41:41.442Z,30.20
2022-08-01T17:43:43.289Z,30.20
2022-08-01T17:45:51.003Z,30.20
2022-08-01T17:47:53.326Z,30.10
2022-08-01T17:49:55.446Z,30.10
2022-08-01T17:51:57.242Z,30.10
2022-08-01T17:53:58.954Z,30.00
2022-08-01T17:56:02.376Z,30.00
2022-08-01T17:58:05.211Z,30.00
2022-08-01T18:00:07.749Z,29.90
2022-08-01T18:02:09.436Z,29.90
2022-08-01T18:04:11.197Z,29.90
2022-08-01T18:06:17.029Z,29.80
2022-08-01T18:08:18.808Z,29.70
2022-08-01T18:10:20.586Z,29.80
2022-08-01T18:12:22.380Z,29.70
2022-08-01T18:14:40.205Z,29.70
2022-08-01T18:16:42.735Z,29.60
2022-08-01T18:18:44.661Z,29.60
2022-08-01T18:20:46.823Z,29.50
2022-08-01T18:22:48.651Z,29.50
2022-08-01T18:24:50.483Z,29.50
2022-08-01T18:26:53.549Z,29.40
2022-08-01T18:28:55.217Z,29.40
2022-08-01T18:30:59.859Z,29.30
2022-08-01T18:33:01.601Z,29.30
2022-08-01T18:35:09.194Z,29.30
2022-08-01T18:37:17.671Z,29.30
2022-08-01T18:39:22.056Z,29.20
2022-08-01T18:41:27.468Z,29.20
2022-08-01T18:43:29.186Z,29.20
2022-08-01T18:45:30.853Z,29.10
2022-08-01T18:47:32.593Z,29.10
2022-08-01T18:49:34.414Z,29.10
2022-08-01T18:51:42.935Z,29.00
2022-08-01T18:53:47.022Z,29.00
2022-08-01T18:55:48.877Z,29.00
2022-08-01T18:57:50.602Z,28.90
2022-08-01T18:59:52.478Z,28.90
2022-08-01T19:01:54.482Z,28.90
2022-08-01T19:03:56.237Z,28.80
2022-08-01T19:05:57.996Z,28.80
2022-08-01T19:08:06.322Z,28.80
2022-08-01T19:10:09.167Z,28.70
2022-08-01T19:12:11.056Z,28.70
2022-08-01T19:14:12.812Z,28.60
2022-08-01T19:16:16.463Z,28.60
2022-08-01T19:18:18.239Z,28.60
2022-08-01T19:20:19.995Z,28.50
2022-08-01T19:22:21.803Z,28.50
2022-08-01T19:24:25.423Z,28.50
2022-08-01T19:26:27.535Z,28.40
2022-08-01T19:28:31.635Z,28.40
2022-08-01T19:30:36.364Z,28.30
2022-08-01T19:32:39.457Z,28.30
2022-08-01T19:35:11.480Z,28.20
2022-08-01T19:37:13.486Z,28.20
2022-08-01T19:39:16.876Z,28.10
2022-08-01T19:41:19.043Z,28.10
2022-08-01T19:43:21.248Z,28.10
2022-08-01T19:45:23.270Z,28.00
2022-08-01T19:47:25.059Z,27.90
2022-08-01T19:49:47.145Z,27.90
2022-08-01T19:51:49.012Z,27.90
2022-08-01T19:53:55.181Z,27.80
2022-08-01T19:55:58.923Z,27.80
2022-08-01T20:00:24.035Z,27.70
2022-08-01T20:02:31.097Z,27.60
2022-08-01T20:04:33.910Z,27.60
2022-08-01T20:06:35.677Z,27.60
2022-08-01T20:08:37.866Z,27.50
2022-08-01T20:10:40.295Z,27.50
2022-08-01T20:12:42.295Z,27.50
2022-08-01T20:14:44.875Z,27.50
2022-08-01T20:16:47.247Z,27.40
2022-08-01T20:18:48.955Z,27.40
2022-08-01T20:20:51.836Z,27.40
2022-08-01T20:22:57.542Z,27.40
2022-08-01T20:25:00.073Z,27.30
2022-08-01T20:27:02.033Z,27.30
2022-08-01T20:29:05.231Z,27.30
2022-08-01T20:31:07.787Z,27.30
2022-08-01T20:33:11.256Z,27.30
2022-08-01T20:35:13.171Z,27.30
2022-08-01T20:37:19.586Z,27.20
2022-08-01T20:39:43.369Z,27.20
2022-08-01T20:41:48.759Z,27.20
2022-08-01T20:43:55.010Z,27.10
2022-08-01T20:45:57.587Z,27.10
2022-08-01T20:48:01.027Z,27.10
2022-08-01T20:50:53.345Z,27.00
2022-08-01T20:52:50.468Z,27.00
2022-08-01T20:54:52.280Z,27.00
2022-08-01T20:56:59.118Z,27.00
2022-08-01T20:59:09.199Z,26.90
2022-08-01T21:01:12.995Z,26.90
2022-08-01T21:03:19.239Z,26.80
2022-08-01T21:05:30.779Z,26.80
2022-08-01T21:07:34.188Z,26.80
2022-08-01T21:09:39.507Z,26.80
2022-08-01T21:11:56.774Z,26.70
2022-08-01T21:14:00.072Z,26.70
2022-08-01T21:16:22.359Z,26.60
2022-08-01T21:18:38.660Z,26.60
2022-08-01T21:20:42.250Z,26.60
2022-08-01T21:23:03.028Z,26.60
2022-08-01T21:25:07.160Z,26.60
2022-08-01T21:27:09.644Z,26.50
2022-08-01T21:29:11.900Z,26.50
2022-08-01T21:31:13.876Z,26.40
2022-08-01T21:33:16.251Z,26.40
2022-08-01T21:35:19.131Z,26.40
2022-08-01T21:37:21.290Z,26.40
2022-08-01T21:39:23.501Z,26.40
2022-08-01T21:42:03.312Z,26.30
2022-08-01T21:43:48.525Z,26.30
2022-08-01T21:45:57.711Z,26.30
2022-08-01T21:48:00.700Z,26.30
2022-08-01T21:50:03.909Z,26.20
2022-08-01T21:52:15.311Z,26.20
2022-08-01T21:54:24.262Z,26.20
2022-08-01T21:56:27.826Z,26.10
2022-08-01T21:58:32.657Z,26.10
2022-08-01T22:00:36.434Z,26.10
2022-08-01T22:02:41.383Z,26.10
2022-08-01T22:04:48.232Z,26.00
2022-08-01T22:06:50.817Z,26.00
2022-08-01T22:08:53.611Z,26.00
2022-08-01T22:10:57.591Z,26.00
2022-08-01T22:12:59.402Z,25.90
2022-08-01T22:15:04.109Z,25.90
2022-08-01T22:17:05.882Z,25.90
2022-08-01T22:19:09.738Z,25.90
2022-08-01T22:21:32.134Z,25.90
2022-08-01T22:23:37.410Z,25.90
2022-08-01T22:25:39.447Z,25.80
2022-08-01T22:28:09.112Z,25.80
2022-08-01T22:30:06.559Z,25.80
2022-08-01T22:32:08.817Z,25.70
2022-08-01T22:34:10.691Z,25.70
2022-08-01T22:36:13.440Z,25.70
2022-08-01T22:38:16.924Z,25.70
2022-08-01T22:40:18.710Z,25.70
2022-08-01T22:42:28.116Z,25.60
2022-08-01T22:44:34.751Z,25.60
2022-08-01T22:46:36.447Z,25.60
2022-08-01T22:48:44.274Z,25.60
2022-08-01T22:51:06.207Z,25.50
2022-08-01T22:53:11.325Z,25.50
2022-08-01T22:55:14.994Z,25.50
2022-08-01T22:57:21.351Z,25.50
2022-08-01T22:59:43.019Z,25.50
2022-08-01T23:01:48.345Z,25.40
2022-08-01T23:03:53.959Z,25.40
2022-08-01T23:05:58.583Z,25.40
2022-08-01T23:08:02.727Z,25.40
2022-08-01T23:10:05.698Z,25.40
2022-08-01T23:12:08.451Z,25.30
2022-08-01T23:14:11.209Z,25.30
2022-08-01T23:16:17.209Z,25.30
2022-08-01T23:18:20.159Z,25.30
2022-08-01T23:20:22.345Z,25.20
2022-08-01T23:22:26.521Z,25.20
2022-08-01T23:24:29.213Z,25.20
2022-08-01T23:26:32.072Z,25.20
2022-08-01T23:28:34.107Z,25.10
2022-08-01T23:30:35.969Z,25.10
2022-08-01T23:32:37.906Z,25.10
2022-08-01T23:34:39.639Z,25.00
2022-08-01T23:36:41.439Z,25.00
2022-08-01T23:38:44.222Z,25.00
2022-08-01T23:40:45.915Z,25.00
2022-08-01T23:42:47.621Z,24.90
2022-08-01T23:44:49.932Z,24.90
2022-08-01T23:46:51.620Z,24.90
2022-08-01T23:48:53.307Z,24.90
2022-08-01T23:50:55.039Z,24.90
2022-08-01T23:52:56.806Z,24.80
2022-08-01T23:54:58.543Z,24.80
2022-08-01T23:57:01.506Z,24.80
2022-08-01T23:59:05.963Z,24.70
